sensor_id;sensor_type;location;lat;lon;timestamp;temperature;humidity
14014;DHT22;49110;52.584;13.408;2023-10-08T00:00:50;14.90;99.90
14014;DHT22;49110;52.584;13.408;2023-10-08T00:01:54;14.90;99.90
14014;DHT22;49110;52.584;13.408;2023-10-08T00:02:56;14.90;99.90
14014;DHT22;49110;52.584;13.408;2023-10-08T00:03:56;14.90;99.90
14014;DHT22;49110;52.584;13.408;2023-10-08T00:04:58;14.90;99.90
14014;DHT22;49110;52.584;13.408;2023-10-08T00:06:03;14.90;99.90
14014;DHT22;49110;52.584;13.408;2023-10-08T00:07:07;14.90;99.90
14014;DHT22;49110;52.584;13.408;2023-10-08T00:08:08;14.80;99.90
14014;DHT22;49110;52.584;13.408;2023-10-08T00:09:13;14.80;99.90
14014;DHT22;49110;52.584;13.408;2023-10-08T00:10:15;14.80;99.90
14014;DHT22;49110;52.584;13.408;2023-10-08T00:11:16;14.70;99.90
14014;DHT22;49110;52.584;13.408;2023-10-08T00:12:18;14.70;99.90
14014;DHT22;49110;52.584;13.408;2023-10-08T00:13:19;14.70;99.90
14014;DHT22;49110;52.584;13.408;2023-10-08T00:14:20;14.80;99.90
14014;DHT22;49110;52.584;13.408;2023-10-08T00:15:21;14.80;99.90
14014;DHT22;49110;52.584;13.408;2023-10-08T00:16:25;14.80;99.90
14014;DHT22;49110;52.584;13.408;2023-10-08T00:17:28;14.80;99.90
14014;DHT22;49110;52.584;13.408;2023-10-08T00:18:29;14.70;99.90
14014;DHT22;49110;52.584;13.408;2023-10-08T00:19:29;14.70;99.90
14014;DHT22;49110;52.584;13.408;2023-10-08T00:20:37;14.70;99.90
14014;DHT22;49110;52.584;13.408;2023-10-08T00:21:55;14.70;99.90
14014;DHT22;49110;52.584;13.408;2023-10-08T00:23:05;14.70;99.90
14014;DHT22;49110;52.584;13.408;2023-10-08T00:24:08;14.70;99.90
14014;DHT22;49110;52.584;13.408;2023-10-08T00:25:09;14.70;99.90
14014;DHT22;49110;52.584;13.408;2023-10-08T00:26:12;14.70;99.90
14014;DHT22;49110;52.584;13.408;2023-10-08T00:27:13;14.70;99.90
14014;DHT22;49110;52.584;13.408;2023-10-08T00:28:18;14.60;99.90
14014;DHT22;49110;52.584;13.408;2023-10-08T00:29:19;14.60;99.90
14014;DHT22;49110;52.584;13.408;2023-10-08T00:30:22;14.60;99.90
14014;DHT22;49110;52.584;13.408;2023-10-08T00:31:23;14.50;99.90
14014;DHT22;49110;52.584;13.408;2023-10-08T00:32:30;14.50;99.90
14014;DHT22;49110;52.584;13.408;2023-10-08T00:33:31;14.60;99.90
14014;DHT22;49110;52.584;13.408;2023-10-08T00:34:31;14.60;99.90
14014;DHT22;49110;52.584;13.408;2023-10-08T00:35:40;14.70;99.90
14014;DHT22;49110;52.584;13.408;2023-10-08T00:36:45;14.70;99.90
14014;DHT22;49110;52.584;13.408;2023-10-08T00:37:49;14.70;99.90
14014;DHT22;49110;52.584;13.408;2023-10-08T00:38:50;14.70;99.90
14014;DHT22;49110;52.584;13.408;2023-10-08T00:39:52;14.70;99.90
14014;DHT22;49110;52.584;13.408;2023-10-08T00:40:57;14.80;99.90
14014;DHT22;49110;52.584;13.408;2023-10-08T00:41:57;14.80;99.90
14014;DHT22;49110;52.584;13.408;2023-10-08T00:43:04;14.80;99.90
14014;DHT22;49110;52.584;13.408;2023-10-08T00:44:11;14.80;99.90
14014;DHT22;49110;52.584;13.408;2023-10-08T00:45:23;14.80;99.90
14014;DHT22;49110;52.584;13.408;2023-10-08T00:46:24;14.80;99.90
14014;DHT22;49110;52.584;13.408;2023-10-08T00:47:29;14.70;99.90
14014;DHT22;49110;52.584;13.408;2023-10-08T00:48:31;14.70;99.90
14014;DHT22;49110;52.584;13.408;2023-10-08T00:49:38;14.70;99.90
14014;DHT22;49110;52.584;13.408;2023-10-08T00:50:41;14.70;99.90
14014;DHT22;49110;52.584;13.408;2023-10-08T00:51:47;14.70;99.90
14014;DHT22;49110;52.584;13.408;2023-10-08T00:52:49;14.70;99.90
14014;DHT22;49110;52.584;13.408;2023-10-08T00:54:12;14.70;99.90
14014;DHT22;49110;52.584;13.408;2023-10-08T00:55:17;14.70;99.90
14014;DHT22;49110;52.584;13.408;2023-10-08T00:56:22;14.70;99.90
14014;DHT22;49110;52.584;13.408;2023-10-08T00:57:26;14.70;99.90
14014;DHT22;49110;52.584;13.408;2023-10-08T00:58:27;14.70;99.90
14014;DHT22;49110;52.584;13.408;2023-10-08T00:59:28;14.70;99.90
14014;DHT22;49110;52.584;13.408;2023-10-08T01:00:34;14.70;99.90
14014;DHT22;49110;52.584;13.408;2023-10-08T01:01:43;14.70;99.90
14014;DHT22;49110;52.584;13.408;2023-10-08T01:02:51;14.70;99.90
14014;DHT22;49110;52.584;13.408;2023-10-08T01:04:19;14.70;99.90
14014;DHT22;49110;52.584;13.408;2023-10-08T01:05:26;14.70;99.90
14014;DHT22;49110;52.584;13.408;2023-10-08T01:06:42;14.70;99.90
14014;DHT22;49110;52.584;13.408;2023-10-08T01:07:43;14.70;99.90
14014;DHT22;49110;52.584;13.408;2023-10-08T01:08:49;14.60;99.90
14014;DHT22;49110;52.584;13.408;2023-10-08T01:09:52;14.70;99.90
14014;DHT22;49110;52.584;13.408;2023-10-08T01:11:15;14.60;99.90
14014;DHT22;49110;52.584;13.408;2023-10-08T01:12:21;14.60;99.90
14014;DHT22;49110;52.584;13.408;2023-10-08T01:13:24;14.70;99.90
14014;DHT22;49110;52.584;13.408;2023-10-08T01:14:26;14.70;99.90
14014;DHT22;49110;52.584;13.408;2023-10-08T01:15:33;14.60;99.90
14014;DHT22;49110;52.584;13.408;2023-10-08T01:16:36;14.60;99.90
14014;DHT22;49110;52.584;13.408;2023-10-08T01:17:36;14.60;99.90
14014;DHT22;49110;52.584;13.408;2023-10-08T01:18:57;14.60;99.90
14014;DHT22;49110;52.584;13.408;2023-10-08T01:20:00;14.60;99.90
14014;DHT22;49110;52.584;13.408;2023-10-08T01:21:09;14.60;99.90
14014;DHT22;49110;52.584;13.408;2023-10-08T01:22:18;14.60;99.90
14014;DHT22;49110;52.584;13.408;2023-10-08T01:23:20;14.60;99.90
14014;DHT22;49110;52.584;13.408;2023-10-08T01:24:27;14.60;99.90
14014;DHT22;49110;52.584;13.408;2023-10-08T01:25:27;14.60;99.90
14014;DHT22;49110;52.584;13.408;2023-10-08T01:26:29;14.60;99.90
14014;DHT22;49110;52.584;13.408;2023-10-08T01:27:32;14.60;99.90
14014;DHT22;49110;52.584;13.408;2023-10-08T01:28:35;14.60;99.90
14014;DHT22;49110;52.584;13.408;2023-10-08T01:29:35;14.60;99.90
14014;DHT22;49110;52.584;13.408;2023-10-08T01:30:36;14.70;99.90
14014;DHT22;49110;52.584;13.408;2023-10-08T01:31:41;14.70;99.90
14014;DHT22;49110;52.584;13.408;2023-10-08T01:32:42;14.70;99.90
14014;DHT22;49110;52.584;13.408;2023-10-08T01:33:43;14.70;99.90
14014;DHT22;49110;52.584;13.408;2023-10-08T01:34:57;14.70;99.90
14014;DHT22;49110;52.584;13.408;2023-10-08T01:36:00;14.60;99.90
14014;DHT22;49110;52.584;13.408;2023-10-08T01:37:03;14.60;99.90
14014;DHT22;49110;52.584;13.408;2023-10-08T01:38:09;14.70;99.90
14014;DHT22;49110;52.584;13.408;2023-10-08T01:39:13;14.70;99.90
14014;DHT22;49110;52.584;13.408;2023-10-08T01:40:19;14.60;99.90
14014;DHT22;49110;52.584;13.408;2023-10-08T01:41:19;14.50;99.90
14014;DHT22;49110;52.584;13.408;2023-10-08T01:42:20;14.50;99.90
14014;DHT22;49110;52.584;13.408;2023-10-08T01:43:22;14.50;99.90
14014;DHT22;49110;52.584;13.408;2023-10-08T01:44:23;14.50;99.90
14014;DHT22;49110;52.584;13.408;2023-10-08T01:45:24;14.50;99.90
14014;DHT22;49110;52.584;13.408;2023-10-08T01:46:25;14.60;99.90
14014;DHT22;49110;52.584;13.408;2023-10-08T01:47:25;14.60;99.90
14014;DHT22;49110;52.584;13.408;2023-10-08T01:48:26;14.50;99.90
14014;DHT22;49110;52.584;13.408;2023-10-08T01:49:37;14.50;99.90
14014;DHT22;49110;52.584;13.408;2023-10-08T01:50:39;14.50;99.90
14014;DHT22;49110;52.584;13.408;2023-10-08T01:51:40;14.50;99.90
14014;DHT22;49110;52.584;13.408;2023-10-08T01:52:50;14.60;99.90
14014;DHT22;49110;52.584;13.408;2023-10-08T01:53:54;14.60;99.90
14014;DHT22;49110;52.584;13.408;2023-10-08T01:54:58;14.60;99.90
14014;DHT22;49110;52.584;13.408;2023-10-08T01:55:59;14.60;99.90
14014;DHT22;49110;52.584;13.408;2023-10-08T01:56:59;14.60;99.90
14014;DHT22;49110;52.584;13.408;2023-10-08T01:58:00;14.60;99.90
14014;DHT22;49110;52.584;13.408;2023-10-08T01:59:00;14.60;99.90
14014;DHT22;49110;52.584;13.408;2023-10-08T02:00:01;14.50;99.90
14014;DHT22;49110;52.584;13.408;2023-10-08T02:01:01;14.50;99.90
14014;DHT22;49110;52.584;13.408;2023-10-08T02:02:05;14.50;99.90
14014;DHT22;49110;52.584;13.408;2023-10-08T02:03:06;14.50;99.90
14014;DHT22;49110;52.584;13.408;2023-10-08T02:04:09;14.50;99.90
14014;DHT22;49110;52.584;13.408;2023-10-08T02:05:12;14.50;99.90
14014;DHT22;49110;52.584;13.408;2023-10-08T02:06:15;14.50;99.90
14014;DHT22;49110;52.584;13.408;2023-10-08T02:07:16;14.40;99.90
14014;DHT22;49110;52.584;13.408;2023-10-08T02:08:16;14.40;99.90
14014;DHT22;49110;52.584;13.408;2023-10-08T02:09:19;14.40;99.90
14014;DHT22;49110;52.584;13.408;2023-10-08T02:10:27;14.50;99.90
14014;DHT22;49110;52.584;13.408;2023-10-08T02:11:29;14.40;99.90
14014;DHT22;49110;52.584;13.408;2023-10-08T02:12:29;14.40;99.90
14014;DHT22;49110;52.584;13.408;2023-10-08T02:13:30;14.30;99.90
14014;DHT22;49110;52.584;13.408;2023-10-08T02:14:31;14.30;99.90
14014;DHT22;49110;52.584;13.408;2023-10-08T02:15:32;14.30;99.90
14014;DHT22;49110;52.584;13.408;2023-10-08T02:16:32;14.40;99.90
14014;DHT22;49110;52.584;13.408;2023-10-08T02:17:34;14.40;99.90
14014;DHT22;49110;52.584;13.408;2023-10-08T02:18:34;14.30;99.90
14014;DHT22;49110;52.584;13.408;2023-10-08T02:19:35;14.30;99.90
14014;DHT22;49110;52.584;13.408;2023-10-08T02:20:39;14.30;99.90
14014;DHT22;49110;52.584;13.408;2023-10-08T02:21:40;14.30;99.90
14014;DHT22;49110;52.584;13.408;2023-10-08T02:22:40;14.40;99.90
14014;DHT22;49110;52.584;13.408;2023-10-08T02:23:41;14.30;99.90
14014;DHT22;49110;52.584;13.408;2023-10-08T02:24:43;14.30;99.90
14014;DHT22;49110;52.584;13.408;2023-10-08T02:25:44;14.40;99.90
14014;DHT22;49110;52.584;13.408;2023-10-08T02:26:44;14.40;99.90
14014;DHT22;49110;52.584;13.408;2023-10-08T02:27:45;14.40;99.90
14014;DHT22;49110;52.584;13.408;2023-10-08T02:28:46;14.40;99.90
14014;DHT22;49110;52.584;13.408;2023-10-08T02:29:46;14.40;99.90
14014;DHT22;49110;52.584;13.408;2023-10-08T02:30:47;14.40;99.90
14014;DHT22;49110;52.584;13.408;2023-10-08T02:31:47;14.40;99.90
14014;DHT22;49110;52.584;13.408;2023-10-08T02:32:48;14.40;99.90
14014;DHT22;49110;52.584;13.408;2023-10-08T02:33:49;14.40;99.90
14014;DHT22;49110;52.584;13.408;2023-10-08T02:34:50;14.30;99.90
14014;DHT22;49110;52.584;13.408;2023-10-08T02:35:51;14.40;99.90
14014;DHT22;49110;52.584;13.408;2023-10-08T02:36:53;14.40;99.90
14014;DHT22;49110;52.584;13.408;2023-10-08T02:37:56;14.40;99.90
14014;DHT22;49110;52.584;13.408;2023-10-08T02:38:57;14.40;99.90
14014;DHT22;49110;52.584;13.408;2023-10-08T02:39:58;14.40;99.90
14014;DHT22;49110;52.584;13.408;2023-10-08T02:40:58;14.30;99.90
14014;DHT22;49110;52.584;13.408;2023-10-08T02:41:59;14.40;99.90
14014;DHT22;49110;52.584;13.408;2023-10-08T02:43:00;14.40;99.90
14014;DHT22;49110;52.584;13.408;2023-10-08T02:44:00;14.40;99.90
14014;DHT22;49110;52.584;13.408;2023-10-08T02:45:01;14.30;99.90
14014;DHT22;49110;52.584;13.408;2023-10-08T02:46:03;14.30;99.90
14014;DHT22;49110;52.584;13.408;2023-10-08T02:47:08;14.30;99.90
14014;DHT22;49110;52.584;13.408;2023-10-08T02:48:12;14.30;99.90
14014;DHT22;49110;52.584;13.408;2023-10-08T02:49:17;14.30;99.90
14014;DHT22;49110;52.584;13.408;2023-10-08T02:50:21;14.30;99.90
14014;DHT22;49110;52.584;13.408;2023-10-08T02:51:22;14.30;99.90
14014;DHT22;49110;52.584;13.408;2023-10-08T02:52:25;14.30;99.90
14014;DHT22;49110;52.584;13.408;2023-10-08T02:53:26;14.30;99.90
14014;DHT22;49110;52.584;13.408;2023-10-08T02:54:26;14.30;99.90
14014;DHT22;49110;52.584;13.408;2023-10-08T02:55:40;14.30;99.90
14014;DHT22;49110;52.584;13.408;2023-10-08T02:56:49;14.30;99.90
14014;DHT22;49110;52.584;13.408;2023-10-08T02:57:52;14.30;99.90
14014;DHT22;49110;52.584;13.408;2023-10-08T02:58:52;14.30;99.90
14014;DHT22;49110;52.584;13.408;2023-10-08T02:59:55;14.30;99.90
14014;DHT22;49110;52.584;13.408;2023-10-08T03:00:55;14.30;99.90
14014;DHT22;49110;52.584;13.408;2023-10-08T03:01:56;14.30;99.90
14014;DHT22;49110;52.584;13.408;2023-10-08T03:02:57;14.30;99.90
14014;DHT22;49110;52.584;13.408;2023-10-08T03:04:01;14.30;99.90
14014;DHT22;49110;52.584;13.408;2023-10-08T03:05:08;14.40;99.90
14014;DHT22;49110;52.584;13.408;2023-10-08T03:06:13;14.40;99.90
14014;DHT22;49110;52.584;13.408;2023-10-08T03:07:15;14.30;99.90
14014;DHT22;49110;52.584;13.408;2023-10-08T03:08:22;14.30;99.90
14014;DHT22;49110;52.584;13.408;2023-10-08T03:09:23;14.30;99.90
14014;DHT22;49110;52.584;13.408;2023-10-08T03:10:24;14.30;99.90
14014;DHT22;49110;52.584;13.408;2023-10-08T03:11:32;14.30;99.90
14014;DHT22;49110;52.584;13.408;2023-10-08T03:12:33;14.30;99.90
14014;DHT22;49110;52.584;13.408;2023-10-08T03:13:34;14.30;99.90
14014;DHT22;49110;52.584;13.408;2023-10-08T03:14:39;14.30;99.90
14014;DHT22;49110;52.584;13.408;2023-10-08T03:15:50;14.30;99.90
14014;DHT22;49110;52.584;13.408;2023-10-08T03:17:02;14.30;99.90
14014;DHT22;49110;52.584;13.408;2023-10-08T03:18:08;14.30;99.90
14014;DHT22;49110;52.584;13.408;2023-10-08T03:19:10;14.20;99.90
14014;DHT22;49110;52.584;13.408;2023-10-08T03:20:11;14.20;99.90
14014;DHT22;49110;52.584;13.408;2023-10-08T03:21:50;14.20;99.90
14014;DHT22;49110;52.584;13.408;2023-10-08T03:22:51;14.20;99.90
14014;DHT22;49110;52.584;13.408;2023-10-08T03:23:51;14.20;99.90
14014;DHT22;49110;52.584;13.408;2023-10-08T03:24:52;14.10;99.90
14014;DHT22;49110;52.584;13.408;2023-10-08T03:25:56;14.10;99.90
14014;DHT22;49110;52.584;13.408;2023-10-08T03:27:09;14.10;99.90
14014;DHT22;49110;52.584;13.408;2023-10-08T03:28:20;14.10;99.90
14014;DHT22;49110;52.584;13.408;2023-10-08T03:29:25;14.00;99.90
14014;DHT22;49110;52.584;13.408;2023-10-08T03:30:30;13.90;99.90
14014;DHT22;49110;52.584;13.408;2023-10-08T03:31:31;14.00;99.90
14014;DHT22;49110;52.584;13.408;2023-10-08T03:32:47;14.00;99.90
14014;DHT22;49110;52.584;13.408;2023-10-08T03:33:56;14.10;99.90
14014;DHT22;49110;52.584;13.408;2023-10-08T03:34:57;14.10;99.90
14014;DHT22;49110;52.584;13.408;2023-10-08T03:36:00;14.10;99.90
14014;DHT22;49110;52.584;13.408;2023-10-08T03:37:00;14.10;99.90
14014;DHT22;49110;52.584;13.408;2023-10-08T03:38:06;14.20;99.90
14014;DHT22;49110;52.584;13.408;2023-10-08T03:39:19;14.20;99.90
14014;DHT22;49110;52.584;13.408;2023-10-08T03:40:20;14.20;99.90
14014;DHT22;49110;52.584;13.408;2023-10-08T03:41:42;14.20;99.90
14014;DHT22;49110;52.584;13.408;2023-10-08T03:42:42;14.10;99.90
14014;DHT22;49110;52.584;13.408;2023-10-08T03:43:49;14.10;99.90
14014;DHT22;49110;52.584;13.408;2023-10-08T03:45:01;14.10;99.90
14014;DHT22;49110;52.584;13.408;2023-10-08T03:46:10;14.10;99.90
14014;DHT22;49110;52.584;13.408;2023-10-08T03:47:15;14.20;99.90
14014;DHT22;49110;52.584;13.408;2023-10-08T03:48:20;14.10;99.90
14014;DHT22;49110;52.584;13.408;2023-10-08T03:49:23;14.20;99.90
14014;DHT22;49110;52.584;13.408;2023-10-08T03:50:23;14.20;99.90
14014;DHT22;49110;52.584;13.408;2023-10-08T03:51:32;14.20;99.90
14014;DHT22;49110;52.584;13.408;2023-10-08T03:52:39;14.20;99.90
14014;DHT22;49110;52.584;13.408;2023-10-08T03:53:40;14.20;99.90
14014;DHT22;49110;52.584;13.408;2023-10-08T03:54:59;14.10;99.90
14014;DHT22;49110;52.584;13.408;2023-10-08T03:56:14;14.10;99.90
14014;DHT22;49110;52.584;13.408;2023-10-08T03:57:15;14.10;99.90
14014;DHT22;49110;52.584;13.408;2023-10-08T03:58:19;14.10;99.90
14014;DHT22;49110;52.584;13.408;2023-10-08T03:59:29;14.00;99.90
14014;DHT22;49110;52.584;13.408;2023-10-08T04:00:29;13.90;99.90
14014;DHT22;49110;52.584;13.408;2023-10-08T04:01:32;13.80;99.90
14014;DHT22;49110;52.584;13.408;2023-10-08T04:02:33;13.90;99.90
14014;DHT22;49110;52.584;13.408;2023-10-08T04:03:40;13.80;99.90
14014;DHT22;49110;52.584;13.408;2023-10-08T04:04:59;13.90;99.90
14014;DHT22;49110;52.584;13.408;2023-10-08T04:06:15;13.90;99.90
14014;DHT22;49110;52.584;13.408;2023-10-08T04:07:17;13.90;99.90
14014;DHT22;49110;52.584;13.408;2023-10-08T04:08:29;13.90;99.90
14014;DHT22;49110;52.584;13.408;2023-10-08T04:09:56;13.90;99.90
14014;DHT22;49110;52.584;13.408;2023-10-08T04:11:10;13.80;99.90
14014;DHT22;49110;52.584;13.408;2023-10-08T04:12:29;13.80;99.90
14014;DHT22;49110;52.584;13.408;2023-10-08T04:13:29;13.70;99.90
14014;DHT22;49110;52.584;13.408;2023-10-08T04:14:31;13.70;99.90
14014;DHT22;49110;52.584;13.408;2023-10-08T04:15:31;13.70;99.90
14014;DHT22;49110;52.584;13.408;2023-10-08T04:16:32;13.70;99.90
14014;DHT22;49110;52.584;13.408;2023-10-08T04:17:37;13.70;99.90
14014;DHT22;49110;52.584;13.408;2023-10-08T04:18:48;13.80;99.90
14014;DHT22;49110;52.584;13.408;2023-10-08T04:19:50;13.80;99.90
14014;DHT22;49110;52.584;13.408;2023-10-08T04:20:51;13.90;99.90
14014;DHT22;49110;52.584;13.408;2023-10-08T04:22:05;13.90;99.90
14014;DHT22;49110;52.584;13.408;2023-10-08T04:23:15;13.90;99.90
14014;DHT22;49110;52.584;13.408;2023-10-08T04:24:25;13.90;99.90
14014;DHT22;49110;52.584;13.408;2023-10-08T04:25:30;13.90;99.90
14014;DHT22;49110;52.584;13.408;2023-10-08T04:26:31;13.90;99.90
14014;DHT22;49110;52.584;13.408;2023-10-08T04:27:34;13.90;99.90
14014;DHT22;49110;52.584;13.408;2023-10-08T04:28:34;13.90;99.90
14014;DHT22;49110;52.584;13.408;2023-10-08T04:29:35;13.90;99.90
14014;DHT22;49110;52.584;13.408;2023-10-08T04:30:39;13.90;99.90
14014;DHT22;49110;52.584;13.408;2023-10-08T04:31:42;13.80;99.90
14014;DHT22;49110;52.584;13.408;2023-10-08T04:32:46;13.70;99.90
14014;DHT22;49110;52.584;13.408;2023-10-08T04:33:47;13.70;99.90
14014;DHT22;49110;52.584;13.408;2023-10-08T04:34:48;13.70;99.90
14014;DHT22;49110;52.584;13.408;2023-10-08T04:35:50;13.70;99.90
14014;DHT22;49110;52.584;13.408;2023-10-08T04:37:02;13.70;99.90
14014;DHT22;49110;52.584;13.408;2023-10-08T04:38:04;13.80;99.90
14014;DHT22;49110;52.584;13.408;2023-10-08T04:39:08;13.80;99.90
14014;DHT22;49110;52.584;13.408;2023-10-08T04:40:22;13.80;99.90
14014;DHT22;49110;52.584;13.408;2023-10-08T04:41:24;13.80;99.90
14014;DHT22;49110;52.584;13.408;2023-10-08T04:42:28;13.80;99.90
14014;DHT22;49110;52.584;13.408;2023-10-08T04:43:29;13.70;99.90
14014;DHT22;49110;52.584;13.408;2023-10-08T04:44:34;13.70;99.90
14014;DHT22;49110;52.584;13.408;2023-10-08T04:45:34;13.70;99.90
14014;DHT22;49110;52.584;13.408;2023-10-08T04:46:35;13.70;99.90
14014;DHT22;49110;52.584;13.408;2023-10-08T04:47:39;13.70;99.90
14014;DHT22;49110;52.584;13.408;2023-10-08T04:48:42;13.70;99.90
14014;DHT22;49110;52.584;13.408;2023-10-08T04:49:43;13.70;99.90
14014;DHT22;49110;52.584;13.408;2023-10-08T04:50:47;13.70;99.90
14014;DHT22;49110;52.584;13.408;2023-10-08T04:52:02;13.70;99.90
14014;DHT22;49110;52.584;13.408;2023-10-08T04:53:08;13.70;99.90
14014;DHT22;49110;52.584;13.408;2023-10-08T04:54:11;13.70;99.90
14014;DHT22;49110;52.584;13.408;2023-10-08T04:55:16;13.70;99.90
14014;DHT22;49110;52.584;13.408;2023-10-08T04:56:20;13.70;99.90
14014;DHT22;49110;52.584;13.408;2023-10-08T04:57:23;13.70;99.90
14014;DHT22;49110;52.584;13.408;2023-10-08T04:58:25;13.60;99.90
14014;DHT22;49110;52.584;13.408;2023-10-08T04:59:33;13.60;99.90
14014;DHT22;49110;52.584;13.408;2023-10-08T05:00:34;13.60;99.90
14014;DHT22;49110;52.584;13.408;2023-10-08T05:01:53;13.60;99.90
14014;DHT22;49110;52.584;13.408;2023-10-08T05:03:12;13.60;99.90
14014;DHT22;49110;52.584;13.408;2023-10-08T05:04:15;13.70;99.90
14014;DHT22;49110;52.584;13.408;2023-10-08T05:05:27;13.70;99.90
14014;DHT22;49110;52.584;13.408;2023-10-08T05:06:38;13.60;99.90
14014;DHT22;49110;52.584;13.408;2023-10-08T05:07:39;13.60;99.90
14014;DHT22;49110;52.584;13.408;2023-10-08T05:08:45;13.60;99.90
14014;DHT22;49110;52.584;13.408;2023-10-08T05:09:48;13.60;99.90
14014;DHT22;49110;52.584;13.408;2023-10-08T05:11:03;13.60;99.90
14014;DHT22;49110;52.584;13.408;2023-10-08T05:12:24;13.60;99.90
14014;DHT22;49110;52.584;13.408;2023-10-08T05:13:44;13.60;99.90
14014;DHT22;49110;52.584;13.408;2023-10-08T05:15:01;13.60;99.90
14014;DHT22;49110;52.584;13.408;2023-10-08T05:16:14;13.50;99.90
14014;DHT22;49110;52.584;13.408;2023-10-08T05:17:36;13.50;99.90
14014;DHT22;49110;52.584;13.408;2023-10-08T05:18:46;13.50;99.90
14014;DHT22;49110;52.584;13.408;2023-10-08T05:20:14;13.50;99.90
14014;DHT22;49110;52.584;13.408;2023-10-08T05:21:20;13.50;99.90
14014;DHT22;49110;52.584;13.408;2023-10-08T05:22:26;13.40;99.90
14014;DHT22;49110;52.584;13.408;2023-10-08T05:23:29;13.50;99.90
14014;DHT22;49110;52.584;13.408;2023-10-08T05:24:30;13.50;99.90
14014;DHT22;49110;52.584;13.408;2023-10-08T05:25:42;13.50;99.90
14014;DHT22;49110;52.584;13.408;2023-10-08T05:26:58;13.50;99.90
14014;DHT22;49110;52.584;13.408;2023-10-08T05:28:18;13.50;99.90
14014;DHT22;49110;52.584;13.408;2023-10-08T05:29:24;13.50;99.90
14014;DHT22;49110;52.584;13.408;2023-10-08T05:30:52;13.50;99.90
14014;DHT22;49110;52.584;13.408;2023-10-08T05:31:55;13.50;99.90
14014;DHT22;49110;52.584;13.408;2023-10-08T05:33:14;13.50;99.90
14014;DHT22;49110;52.584;13.408;2023-10-08T05:34:17;13.50;99.90
14014;DHT22;49110;52.584;13.408;2023-10-08T05:35:34;13.50;99.90
14014;DHT22;49110;52.584;13.408;2023-10-08T05:36:41;13.50;99.90
14014;DHT22;49110;52.584;13.408;2023-10-08T05:37:59;13.50;99.90
14014;DHT22;49110;52.584;13.408;2023-10-08T05:39:13;13.50;99.90
14014;DHT22;49110;52.584;13.408;2023-10-08T05:40:30;13.50;99.90
14014;DHT22;49110;52.584;13.408;2023-10-08T05:41:49;13.40;99.90
14014;DHT22;49110;52.584;13.408;2023-10-08T05:42:55;13.40;99.90
14014;DHT22;49110;52.584;13.408;2023-10-08T05:44:01;13.40;99.90
14014;DHT22;49110;52.584;13.408;2023-10-08T05:45:20;13.40;99.90
14014;DHT22;49110;52.584;13.408;2023-10-08T05:46:29;13.50;99.90
14014;DHT22;49110;52.584;13.408;2023-10-08T05:47:30;13.50;99.90
14014;DHT22;49110;52.584;13.408;2023-10-08T05:48:34;13.50;99.90
14014;DHT22;49110;52.584;13.408;2023-10-08T05:49:45;13.50;99.90
14014;DHT22;49110;52.584;13.408;2023-10-08T05:51:08;13.50;99.90
14014;DHT22;49110;52.584;13.408;2023-10-08T05:52:34;13.60;99.90
14014;DHT22;49110;52.584;13.408;2023-10-08T05:53:50;13.60;99.90
14014;DHT22;49110;52.584;13.408;2023-10-08T05:54:56;13.60;99.90
14014;DHT22;49110;52.584;13.408;2023-10-08T05:56:18;13.60;99.90
14014;DHT22;49110;52.584;13.408;2023-10-08T05:57:42;13.60;99.90
14014;DHT22;49110;52.584;13.408;2023-10-08T05:58:46;13.60;99.90
14014;DHT22;49110;52.584;13.408;2023-10-08T06:00:00;13.60;99.90
14014;DHT22;49110;52.584;13.408;2023-10-08T06:01:01;13.60;99.90
14014;DHT22;49110;52.584;13.408;2023-10-08T06:02:08;13.60;99.90
14014;DHT22;49110;52.584;13.408;2023-10-08T06:03:28;13.60;99.90
14014;DHT22;49110;52.584;13.408;2023-10-08T06:04:48;13.60;99.90
14014;DHT22;49110;52.584;13.408;2023-10-08T06:06:14;13.50;99.90
14014;DHT22;49110;52.584;13.408;2023-10-08T06:07:14;13.50;99.90
14014;DHT22;49110;52.584;13.408;2023-10-08T06:08:33;13.50;99.90
14014;DHT22;49110;52.584;13.408;2023-10-08T06:10:05;13.50;99.90
14014;DHT22;49110;52.584;13.408;2023-10-08T06:11:25;13.50;99.90
14014;DHT22;49110;52.584;13.408;2023-10-08T06:12:44;13.40;99.90
14014;DHT22;49110;52.584;13.408;2023-10-08T06:13:50;13.40;99.90
14014;DHT22;49110;52.584;13.408;2023-10-08T06:14:56;13.40;99.90
14014;DHT22;49110;52.584;13.408;2023-10-08T06:16:09;13.40;99.90
14014;DHT22;49110;52.584;13.408;2023-10-08T06:17:09;13.50;99.90
14014;DHT22;49110;52.584;13.408;2023-10-08T06:18:44;13.50;99.90
14014;DHT22;49110;52.584;13.408;2023-10-08T06:19:45;13.50;99.90
14014;DHT22;49110;52.584;13.408;2023-10-08T06:20:46;13.50;99.90
14014;DHT22;49110;52.584;13.408;2023-10-08T06:21:46;13.60;99.90
14014;DHT22;49110;52.584;13.408;2023-10-08T06:22:47;13.60;99.90
14014;DHT22;49110;52.584;13.408;2023-10-08T06:23:47;13.70;99.90
14014;DHT22;49110;52.584;13.408;2023-10-08T06:24:49;13.70;99.90
14014;DHT22;49110;52.584;13.408;2023-10-08T06:25:51;13.80;99.90
14014;DHT22;49110;52.584;13.408;2023-10-08T06:26:59;13.80;99.90
14014;DHT22;49110;52.584;13.408;2023-10-08T06:28:05;13.80;99.90
14014;DHT22;49110;52.584;13.408;2023-10-08T06:29:12;13.80;99.90
14014;DHT22;49110;52.584;13.408;2023-10-08T06:30:19;13.80;99.90
14014;DHT22;49110;52.584;13.408;2023-10-08T06:31:19;13.70;99.90
14014;DHT22;49110;52.584;13.408;2023-10-08T06:32:25;13.70;99.90
14014;DHT22;49110;52.584;13.408;2023-10-08T06:33:25;13.70;99.90
14014;DHT22;49110;52.584;13.408;2023-10-08T06:34:31;13.70;99.90
14014;DHT22;49110;52.584;13.408;2023-10-08T06:35:31;13.70;99.90
14014;DHT22;49110;52.584;13.408;2023-10-08T06:36:33;13.70;99.90
14014;DHT22;49110;52.584;13.408;2023-10-08T06:37:33;13.70;99.90
14014;DHT22;49110;52.584;13.408;2023-10-08T06:38:35;13.70;99.90
14014;DHT22;49110;52.584;13.408;2023-10-08T06:39:35;13.70;99.90
14014;DHT22;49110;52.584;13.408;2023-10-08T06:40:47;13.60;99.90
14014;DHT22;49110;52.584;13.408;2023-10-08T06:41:53;13.60;99.90
14014;DHT22;49110;52.584;13.408;2023-10-08T06:42:54;13.60;99.90
14014;DHT22;49110;52.584;13.408;2023-10-08T06:43:57;13.60;99.90
14014;DHT22;49110;52.584;13.408;2023-10-08T06:45:04;13.60;99.90
14014;DHT22;49110;52.584;13.408;2023-10-08T06:46:05;13.60;99.90
14014;DHT22;49110;52.584;13.408;2023-10-08T06:47:08;13.60;99.90
14014;DHT22;49110;52.584;13.408;2023-10-08T06:48:10;13.60;99.90
14014;DHT22;49110;52.584;13.408;2023-10-08T06:49:18;13.60;99.90